createdAt,value
2019-03-03T00:00:34.654Z,10.30
2019-03-03T00:03:04.444Z,10.30
2019-03-03T00:05:34.051Z,10.30
2019-03-03T00:08:03.853Z,10.30
2019-03-03T00:10:33.515Z,10.30
2019-03-03T00:13:03.261Z,10.30
2019-03-03T00:15:32.865Z,10.30
2019-03-03T00:18:02.730Z,10.30
2019-03-03T00:20:32.622Z,10.30
2019-03-03T00:23:02.249Z,10.20
2019-03-03T00:25:31.925Z,10.20
2019-03-03T00:28:01.537Z,10.20
2019-03-03T00:30:31.291Z,10.20
2019-03-03T00:33:00.918Z,10.20
2019-03-03T00:35:31.658Z,10.20
2019-03-03T00:38:39.428Z,10.30
2019-03-03T00:41:36.781Z,10.30
2019-03-03T00:44:24.423Z,10.30
2019-03-03T00:47:14.289Z,10.30
2019-03-03T00:50:05.400Z,10.30
2019-03-03T00:53:01.902Z,10.30
2019-03-03T00:55:49.519Z,10.30
2019-03-03T00:58:33.051Z,10.20
2019-03-03T01:01:21.838Z,10.20
2019-03-03T01:04:06.041Z,10.20
2019-03-03T01:06:54.514Z,10.20
2019-03-03T01:09:43.498Z,10.20
2019-03-03T01:12:22.337Z,10.20
2019-03-03T01:14:58.430Z,10.20
2019-03-03T01:17:40.845Z,10.20
2019-03-03T01:20:29.703Z,10.20
2019-03-03T01:23:16.109Z,10.20
2019-03-03T01:25:45.770Z,10.20
2019-03-03T01:28:15.378Z,10.20
2019-03-03T01:30:45.174Z,10.30
2019-03-03T01:33:15.061Z,10.30
2019-03-03T01:35:44.676Z,10.30
2019-03-03T01:38:14.321Z,10.30
2019-03-03T01:40:43.950Z,10.30
2019-03-03T01:43:13.566Z,10.40
2019-03-03T01:45:43.261Z,10.40
2019-03-03T01:48:12.875Z,10.40
2019-03-03T01:50:42.582Z,10.40
2019-03-03T01:53:12.244Z,10.30
2019-03-03T01:55:41.957Z,10.40
2019-03-03T01:58:11.592Z,10.30
2019-03-03T02:00:41.481Z,10.30
2019-03-03T02:03:11.186Z,10.30
2019-03-03T02:05:41.054Z,10.30
2019-03-03T02:08:10.858Z,10.30
2019-03-03T02:10:40.498Z,10.20
2019-03-03T02:13:10.266Z,10.20
2019-03-03T02:15:39.983Z,10.20
2019-03-03T02:18:09.692Z,10.20
2019-03-03T02:20:39.306Z,10.20
2019-03-03T02:23:21.122Z,10.20
2019-03-03T02:25:50.997Z,10.10
2019-03-03T02:28:20.717Z,10.10
2019-03-03T02:30:50.342Z,10.10
2019-03-03T02:33:20.039Z,10.00
2019-03-03T02:35:49.654Z,10.00
2019-03-03T02:38:19.315Z,10.00
2019-03-03T02:40:48.927Z,9.90
2019-03-03T02:43:18.548Z,9.90
2019-03-03T02:45:48.187Z,9.90
2019-03-03T02:48:17.873Z,9.80
2019-03-03T02:50:47.490Z,9.80
2019-03-03T02:53:17.108Z,9.80
2019-03-03T02:55:46.711Z,9.70
2019-03-03T02:58:28.298Z,9.70
2019-03-03T03:01:11.599Z,9.70
2019-03-03T03:03:41.241Z,9.60
2019-03-03T03:06:42.115Z,9.60
2019-03-03T03:09:31.049Z,9.60
2019-03-03T03:12:25.819Z,9.60
2019-03-03T03:15:06.568Z,9.50
2019-03-03T03:17:42.342Z,9.50
2019-03-03T03:20:19.325Z,9.50
2019-03-03T03:23:04.503Z,9.50
2019-03-03T03:25:53.283Z,9.50
2019-03-03T03:28:39.823Z,9.50
2019-03-03T03:31:18.514Z,9.50
2019-03-03T03:33:59.341Z,9.60
2019-03-03T03:36:53.511Z,9.60
2019-03-03T03:39:48.274Z,9.60
2019-03-03T03:42:44.282Z,9.60
2019-03-03T03:45:32.339Z,9.70
2019-03-03T03:48:26.914Z,9.70
2019-03-03T03:51:20.371Z,9.70
2019-03-03T03:54:04.850Z,9.70
2019-03-03T03:56:59.498Z,9.70
2019-03-03T03:59:41.947Z,9.80
2019-03-03T04:02:29.707Z,9.80
2019-03-03T04:05:06.703Z,9.80
2019-03-03T04:07:45.613Z,9.80
2019-03-03T04:10:21.104Z,9.80
2019-03-03T04:13:14.032Z,9.80
2019-03-03T04:16:00.818Z,9.80
2019-03-03T04:18:39.007Z,9.80
2019-03-03T04:21:18.866Z,9.80
2019-03-03T04:24:06.430Z,9.80
2019-03-03T04:26:51.345Z,9.80
2019-03-03T04:29:46.135Z,9.80
2019-03-03T04:32:21.366Z,9.80
2019-03-03T04:35:10.148Z,9.90
2019-03-03T04:38:05.014Z,9.90
2019-03-03T04:41:04.102Z,9.90
2019-03-03T04:43:46.810Z,9.90
2019-03-03T04:46:30.942Z,9.80
2019-03-03T04:49:35.202Z,9.90
2019-03-03T04:52:32.682Z,9.90
2019-03-03T04:55:21.422Z,9.90
2019-03-03T04:58:05.466Z,9.90
2019-03-03T05:00:51.469Z,9.90
2019-03-03T05:03:35.721Z,9.90
2019-03-03T05:06:30.346Z,10.00
2019-03-03T05:09:09.202Z,10.00
2019-03-03T05:12:31.893Z,10.00
2019-03-03T05:15:09.370Z,10.00
2019-03-03T05:17:50.176Z,10.10
2019-03-03T05:20:19.862Z,10.10
2019-03-03T05:22:49.494Z,10.10
2019-03-03T05:25:19.138Z,10.10
2019-03-03T05:27:48.853Z,10.20
2019-03-03T05:30:18.606Z,10.20
2019-03-03T05:32:48.223Z,10.20
2019-03-03T05:35:17.873Z,10.20
2019-03-03T05:37:47.492Z,10.20
2019-03-03T05:40:17.094Z,10.20
2019-03-03T05:42:46.732Z,10.20
2019-03-03T05:45:16.330Z,10.30
2019-03-03T05:47:46.103Z,10.30
2019-03-03T05:50:15.694Z,10.30
2019-03-03T05:52:45.300Z,10.30
2019-03-03T05:55:14.917Z,10.30
2019-03-03T05:57:44.539Z,10.40
2019-03-03T06:00:15.278Z,10.40
2019-03-03T06:02:44.886Z,10.40
2019-03-03T06:05:14.569Z,10.40
2019-03-03T06:07:44.231Z,10.30
2019-03-03T06:10:14.030Z,10.30
2019-03-03T06:12:43.673Z,10.30
2019-03-03T06:15:14.071Z,10.30
2019-03-03T06:17:43.821Z,10.30
2019-03-03T06:20:27.775Z,10.30
2019-03-03T06:22:56.926Z,10.30
2019-03-03T06:25:26.607Z,10.30
2019-03-03T06:27:56.209Z,10.30
2019-03-03T06:30:25.825Z,10.30
2019-03-03T06:32:55.466Z,10.30
2019-03-03T06:35:26.138Z,10.30
2019-03-03T06:37:56.030Z,10.20
2019-03-03T06:40:25.638Z,10.20
2019-03-03T06:42:55.243Z,10.20
2019-03-03T06:45:24.849Z,10.20
2019-03-03T06:47:54.459Z,10.20
2019-03-03T06:50:24.083Z,10.30
2019-03-03T06:52:53.718Z,10.20
2019-03-03T06:55:23.340Z,10.30
2019-03-03T06:57:52.933Z,10.20
2019-03-03T07:00:22.582Z,10.20
2019-03-03T07:02:53.475Z,10.30
2019-03-03T07:05:28.028Z,10.30
2019-03-03T07:08:07.239Z,10.30
2019-03-03T07:10:47.356Z,10.30
2019-03-03T07:13:24.970Z,10.30
2019-03-03T07:16:07.029Z,10.30
2019-03-03T07:18:50.305Z,10.30
2019-03-03T07:21:29.038Z,10.30
2019-03-03T07:24:02.482Z,10.40
2019-03-03T07:26:37.370Z,10.40
2019-03-03T07:29:10.120Z,10.40
2019-03-03T07:31:50.384Z,10.40
2019-03-03T07:34:32.579Z,10.40
2019-03-03T07:37:04.662Z,10.40
2019-03-03T07:39:34.548Z,10.40
2019-03-03T07:42:06.087Z,10.50
2019-03-03T07:44:36.068Z,10.50
2019-03-03T07:47:06.091Z,10.50
2019-03-03T07:49:36.139Z,10.50
2019-03-03T07:52:06.196Z,10.50
2019-03-03T07:54:38.439Z,10.50
2019-03-03T07:57:18.916Z,10.50
2019-03-03T08:00:01.047Z,10.50
2019-03-03T08:02:39.460Z,10.50
2019-03-03T08:05:11.150Z,10.60
2019-03-03T08:07:59.477Z,10.60
2019-03-03T08:10:37.974Z,10.60
2019-03-03T08:13:15.655Z,10.60
2019-03-03T08:15:55.399Z,10.60
2019-03-03T08:18:33.571Z,10.60
2019-03-03T08:21:04.326Z,10.60
2019-03-03T08:23:40.086Z,10.60
2019-03-03T08:26:14.063Z,10.60
2019-03-03T08:28:44.202Z,10.60
2019-03-03T08:31:16.416Z,10.60
2019-03-03T08:33:46.439Z,10.60
2019-03-03T08:36:35.442Z,10.60
2019-03-03T08:39:20.437Z,10.70
2019-03-03T08:42:01.356Z,10.70
2019-03-03T08:44:55.903Z,10.60
2019-03-03T08:47:53.311Z,10.70
2019-03-03T08:50:30.821Z,10.70
2019-03-03T08:53:08.746Z,10.70
2019-03-03T08:55:59.735Z,10.70
2019-03-03T08:58:49.797Z,10.80
2019-03-03T09:01:35.394Z,10.80
2019-03-03T09:04:30.735Z,10.80
2019-03-03T09:07:37.581Z,10.80
2019-03-03T09:10:25.181Z,10.90
2019-03-03T09:13:05.506Z,10.90
2019-03-03T09:15:53.009Z,10.90
2019-03-03T09:18:50.662Z,11.00
2019-03-03T09:21:45.744Z,10.90
2019-03-03T09:24:34.434Z,10.90
2019-03-03T09:27:11.821Z,10.90
2019-03-03T09:30:01.607Z,11.00
2019-03-03T09:33:06.762Z,11.00
2019-03-03T09:35:45.318Z,11.00
2019-03-03T09:38:30.902Z,11.00
2019-03-03T09:41:13.805Z,11.10
2019-03-03T09:44:20.663Z,11.10
2019-03-03T09:47:03.082Z,11.20
2019-03-03T09:49:42.823Z,11.20
2019-03-03T09:52:43.628Z,11.20
2019-03-03T09:55:36.422Z,11.20
2019-03-03T09:58:25.938Z,11.30
2019-03-03T10:01:10.838Z,11.20
2019-03-03T10:03:46.242Z,11.30
2019-03-03T10:06:41.054Z,11.30
2019-03-03T10:09:31.311Z,11.30
2019-03-03T10:12:29.207Z,11.30
2019-03-03T10:15:26.915Z,11.30
2019-03-03T10:18:13.332Z,11.30
2019-03-03T10:21:03.170Z,11.30
2019-03-03T10:23:46.403Z,11.40
2019-03-03T10:26:38.437Z,11.40
2019-03-03T10:29:31.134Z,11.40
2019-03-03T10:32:29.272Z,11.50
2019-03-03T10:35:16.942Z,11.50
2019-03-03T10:38:04.042Z,11.50
2019-03-03T10:40:56.818Z,11.50
2019-03-03T10:43:48.835Z,11.50
2019-03-03T10:46:44.132Z,11.50
2019-03-03T10:49:32.772Z,11.50
2019-03-03T10:52:08.686Z,11.50
2019-03-03T10:54:55.936Z,11.40
2019-03-03T10:57:48.674Z,11.40
2019-03-03T11:00:43.486Z,11.40
2019-03-03T11:03:44.333Z,11.40
2019-03-03T11:06:51.439Z,11.40
2019-03-03T11:09:31.368Z,11.40
2019-03-03T11:12:23.661Z,11.40
2019-03-03T11:15:03.289Z,11.50
2019-03-03T11:18:04.266Z,11.50
2019-03-03T11:20:53.157Z,11.50
2019-03-03T11:23:30.014Z,11.50
2019-03-03T11:26:11.954Z,11.50
2019-03-03T11:29:03.758Z,11.60
2019-03-03T11:31:51.230Z,11.60
2019-03-03T11:34:30.891Z,11.60
2019-03-03T11:37:09.229Z,11.60
2019-03-03T11:39:51.480Z,11.60
2019-03-03T11:42:30.963Z,11.60
2019-03-03T11:45:12.519Z,11.60
2019-03-03T11:48:04.735Z,11.70
2019-03-03T11:50:47.259Z,11.70
2019-03-03T11:53:31.197Z,11.70
2019-03-03T11:56:29.220Z,11.70
2019-03-03T11:59:24.509Z,11.80
2019-03-03T12:02:13.216Z,11.80
2019-03-03T12:05:00.702Z,11.80
2019-03-03T12:08:04.675Z,11.70
2019-03-03T12:10:52.130Z,11.70
2019-03-03T12:13:40.844Z,11.70
2019-03-03T12:16:29.125Z,11.70
2019-03-03T12:19:30.238Z,11.70
2019-03-03T12:22:06.722Z,11.70
2019-03-03T12:24:45.844Z,11.60
2019-03-03T12:27:33.572Z,11.60
2019-03-03T12:30:25.508Z,11.60
2019-03-03T12:33:10.467Z,11.60
2019-03-03T12:35:45.987Z,11.60
2019-03-03T12:38:41.143Z,11.60
2019-03-03T12:41:28.904Z,11.60
2019-03-03T12:44:13.182Z,11.60
2019-03-03T12:46:53.205Z,11.60
2019-03-03T12:49:29.879Z,11.50
2019-03-03T12:52:24.685Z,11.50
2019-03-03T12:55:16.482Z,11.50
2019-03-03T12:57:58.384Z,11.50
2019-03-03T13:00:46.647Z,11.50
2019-03-03T13:03:41.471Z,11.50
2019-03-03T13:06:36.761Z,11.60
2019-03-03T13:09:19.609Z,11.50
2019-03-03T13:12:02.241Z,11.50
2019-03-03T13:14:44.410Z,11.60
2019-03-03T13:17:29.910Z,11.60
2019-03-03T13:20:18.637Z,11.60
2019-03-03T13:23:25.829Z,11.70
2019-03-03T13:26:11.777Z,11.70
2019-03-03T13:28:49.073Z,11.70
2019-03-03T13:31:30.550Z,11.80
2019-03-03T13:34:37.615Z,11.80
2019-03-03T13:37:26.701Z,11.80
2019-03-03T13:40:21.450Z,11.80
2019-03-03T13:42:56.471Z,11.80
2019-03-03T13:45:28.427Z,11.90
2019-03-03T13:47:58.161Z,11.90
2019-03-03T13:50:28.051Z,11.90
2019-03-03T13:52:57.831Z,12.00
2019-03-03T13:55:27.618Z,12.10
2019-03-03T13:57:57.494Z,12.10
2019-03-03T14:00:27.362Z,12.10
2019-03-03T14:02:57.286Z,12.10
2019-03-03T14:05:27.148Z,12.20
2019-03-03T14:07:57.118Z,12.10
2019-03-03T14:10:26.826Z,12.10
2019-03-03T14:12:57.521Z,12.10
2019-03-03T14:15:27.242Z,12.10
2019-03-03T14:17:58.054Z,12.10
2019-03-03T14:20:27.858Z,12.10
2019-03-03T14:22:57.454Z,12.00
2019-03-03T14:25:27.241Z,12.00
2019-03-03T14:27:57.162Z,12.00
2019-03-03T14:30:27.211Z,12.00
2019-03-03T14:32:56.900Z,12.00
2019-03-03T14:35:26.514Z,12.00
2019-03-03T14:37:56.530Z,12.00
2019-03-03T14:40:26.324Z,12.00
2019-03-03T14:42:56.038Z,12.00
2019-03-03T14:45:25.832Z,12.00
2019-03-03T14:47:55.455Z,12.00
2019-03-03T14:50:25.162Z,12.00
2019-03-03T14:52:54.775Z,12.00
2019-03-03T14:55:24.410Z,12.00
2019-03-03T14:57:54.023Z,12.00
2019-03-03T15:00:29.205Z,12.00
2019-03-03T15:03:00.588Z,12.10
2019-03-03T15:05:30.666Z,12.10
2019-03-03T15:08:00.482Z,12.10
2019-03-03T15:10:30.318Z,12.10
2019-03-03T15:13:00.218Z,12.10
2019-03-03T15:15:30.931Z,12.10
2019-03-03T15:18:00.670Z,12.10
2019-03-03T15:20:30.870Z,12.10
2019-03-03T15:23:00.633Z,12.10
2019-03-03T15:25:30.500Z,12.00
2019-03-03T15:28:00.420Z,12.00
2019-03-03T15:30:30.238Z,12.10
2019-03-03T15:33:00.023Z,12.00
2019-03-03T15:35:29.757Z,12.10
2019-03-03T15:37:59.565Z,12.10
2019-03-03T15:40:30.482Z,12.10
2019-03-03T15:43:00.214Z,12.10
2019-03-03T15:45:30.216Z,12.10
2019-03-03T15:48:00.053Z,12.10
2019-03-03T15:50:29.674Z,12.20
2019-03-03T15:52:59.281Z,12.20
2019-03-03T15:55:28.946Z,12.10
2019-03-03T15:57:58.630Z,12.20
2019-03-03T16:00:29.550Z,12.20
2019-03-03T16:02:59.234Z,12.20
2019-03-03T16:05:29.081Z,12.20
2019-03-03T16:07:58.874Z,12.20
2019-03-03T16:10:28.666Z,12.20
2019-03-03T16:12:58.381Z,12.20
2019-03-03T16:15:28.061Z,12.20
2019-03-03T16:17:57.849Z,12.20
2019-03-03T16:20:27.666Z,12.20
2019-03-03T16:22:57.490Z,12.20
2019-03-03T16:25:27.283Z,12.10
2019-03-03T16:27:56.917Z,12.10
2019-03-03T16:30:26.545Z,12.20
2019-03-03T16:32:56.154Z,12.20
2019-03-03T16:35:25.854Z,12.10
2019-03-03T16:37:55.502Z,12.20
2019-03-03T16:40:25.280Z,12.10
2019-03-03T16:42:54.987Z,12.10
2019-03-03T16:45:24.666Z,12.10
2019-03-03T16:47:54.372Z,12.10
2019-03-03T16:50:24.250Z,12.10
2019-03-03T16:52:53.878Z,12.10
2019-03-03T16:55:23.515Z,12.00
2019-03-03T16:57:53.159Z,12.00
2019-03-03T17:00:23.120Z,12.10
2019-03-03T17:02:52.741Z,12.00
2019-03-03T17:05:22.523Z,12.00
2019-03-03T17:07:52.315Z,12.00
2019-03-03T17:10:22.077Z,12.00
2019-03-03T17:12:51.686Z,12.00
2019-03-03T17:15:21.875Z,11.90
2019-03-03T17:17:51.587Z,11.80
2019-03-03T17:20:21.376Z,11.80
2019-03-03T17:22:51.122Z,11.80
2019-03-03T17:25:21.753Z,11.80
2019-03-03T17:27:51.517Z,11.70
2019-03-03T17:30:21.970Z,11.70
2019-03-03T17:32:51.850Z,11.70
2019-03-03T17:35:28.649Z,11.70
2019-03-03T17:37:59.421Z,11.80
2019-03-03T17:40:29.366Z,11.80
2019-03-03T17:42:59.247Z,11.80
2019-03-03T17:45:29.233Z,11.80
2019-03-03T17:47:59.089Z,11.80
2019-03-03T17:50:29.049Z,11.80
2019-03-03T17:53:04.089Z,11.80
2019-03-03T17:55:41.055Z,11.70
2019-03-03T17:58:14.808Z,11.70
2019-03-03T18:00:53.193Z,11.70
2019-03-03T18:03:26.047Z,11.60
2019-03-03T18:06:01.009Z,11.60
2019-03-03T18:08:34.001Z,11.60
2019-03-03T18:11:09.660Z,11.50
2019-03-03T18:13:47.133Z,11.50
2019-03-03T18:16:23.075Z,11.50
2019-03-03T18:19:01.515Z,11.50
2019-03-03T18:21:32.177Z,11.50
2019-03-03T18:24:07.242Z,11.50
2019-03-03T18:26:45.398Z,11.50
2019-03-03T18:29:23.294Z,11.60
2019-03-03T18:31:53.574Z,11.60
2019-03-03T18:34:31.307Z,11.60
2019-03-03T18:37:08.951Z,11.60
2019-03-03T18:39:47.016Z,11.60
2019-03-03T18:42:24.185Z,11.50
2019-03-03T18:45:03.401Z,11.50
2019-03-03T18:47:37.737Z,11.50
2019-03-03T18:50:14.886Z,11.50
2019-03-03T18:52:45.575Z,11.50
2019-03-03T18:55:23.394Z,11.60
2019-03-03T18:57:53.901Z,11.60
2019-03-03T19:00:27.256Z,11.60
2019-03-03T19:03:04.349Z,11.70
2019-03-03T19:05:40.159Z,11.70
2019-03-03T19:08:15.814Z,11.80
2019-03-03T19:10:57.426Z,11.80
2019-03-03T19:13:30.568Z,11.90
2019-03-03T19:16:08.398Z,11.90
2019-03-03T19:18:45.964Z,11.80
2019-03-03T19:21:23.101Z,11.80
2019-03-03T19:23:58.999Z,11.80
2019-03-03T19:26:30.487Z,11.80
2019-03-03T19:29:00.466Z,11.80
2019-03-03T19:31:30.135Z,11.80
2019-03-03T19:34:04.451Z,11.80
2019-03-03T19:36:39.313Z,11.70
2019-03-03T19:39:13.029Z,11.70
2019-03-03T19:41:44.188Z,11.80
2019-03-03T19:44:16.476Z,11.80
2019-03-03T19:46:51.338Z,11.90
2019-03-03T19:49:26.047Z,11.90
2019-03-03T19:51:59.482Z,11.90
2019-03-03T19:54:31.666Z,11.90
2019-03-03T19:57:05.163Z,11.90
2019-03-03T19:59:44.092Z,11.90
2019-03-03T20:02:18.755Z,11.90
2019-03-03T20:04:52.412Z,11.90
2019-03-03T20:07:28.957Z,11.90
2019-03-03T20:10:05.405Z,11.90
2019-03-03T20:12:37.748Z,11.90
2019-03-03T20:15:13.791Z,11.90
2019-03-03T20:17:48.711Z,11.80
2019-03-03T20:20:22.537Z,11.70
2019-03-03T20:22:54.599Z,11.70
2019-03-03T20:25:25.294Z,11.70
2019-03-03T20:28:01.129Z,11.80
2019-03-03T20:30:37.273Z,11.80
2019-03-03T20:33:08.490Z,11.80
2019-03-03T20:35:39.866Z,11.80
2019-03-03T20:38:13.002Z,11.80
2019-03-03T20:40:43.040Z,11.90
2019-03-03T20:43:13.005Z,11.90
2019-03-03T20:45:50.909Z,11.90
2019-03-03T20:48:24.623Z,11.90
2019-03-03T20:51:01.440Z,11.90
2019-03-03T20:53:31.834Z,11.90
2019-03-03T20:56:09.237Z,11.90
2019-03-03T20:58:46.991Z,11.90
2019-03-03T21:01:17.212Z,11.80
2019-03-03T21:03:46.833Z,11.80
2019-03-03T21:06:16.462Z,11.80
2019-03-03T21:08:46.096Z,11.80
2019-03-03T21:11:15.686Z,11.80
2019-03-03T21:13:45.286Z,11.90
2019-03-03T21:16:14.877Z,11.90
2019-03-03T21:18:44.498Z,11.90
2019-03-03T21:21:14.397Z,11.90
2019-03-03T21:23:43.994Z,12.00
2019-03-03T21:26:13.773Z,11.90
2019-03-03T21:29:02.610Z,12.00
2019-03-03T21:31:32.249Z,12.00
2019-03-03T21:34:01.954Z,12.00
2019-03-03T21:36:31.588Z,12.00
2019-03-03T21:39:01.477Z,12.00
2019-03-03T21:41:32.718Z,12.00
2019-03-03T21:44:02.344Z,12.00
2019-03-03T21:46:32.015Z,12.00
2019-03-03T21:49:01.643Z,11.90
2019-03-03T21:51:31.263Z,11.90
2019-03-03T21:54:00.902Z,11.90
2019-03-03T21:56:30.523Z,11.80
2019-03-03T21:59:00.135Z,11.80
2019-03-03T22:01:29.706Z,11.80
2019-03-03T22:03:59.556Z,11.80
2019-03-03T22:06:29.169Z,11.90
2019-03-03T22:08:58.798Z,11.90
2019-03-03T22:11:28.419Z,11.90
2019-03-03T22:13:58.170Z,11.80
2019-03-03T22:16:28.851Z,11.80
2019-03-03T22:18:58.494Z,11.90
2019-03-03T22:21:28.106Z,11.90
2019-03-03T22:23:57.730Z,11.90
2019-03-03T22:26:27.374Z,11.90
2019-03-03T22:28:57.111Z,11.90
2019-03-03T22:31:26.726Z,11.90
2019-03-03T22:33:56.452Z,11.90
2019-03-03T22:36:26.067Z,12.00
2019-03-03T22:38:55.686Z,12.00
2019-03-03T22:41:25.294Z,12.00
2019-03-03T22:43:54.896Z,12.00
2019-03-03T22:46:24.514Z,12.00
2019-03-03T22:48:54.331Z,12.00
2019-03-03T22:51:23.949Z,11.90
2019-03-03T22:53:53.543Z,11.90
2019-03-03T22:56:23.159Z,11.90
2019-03-03T22:58:52.770Z,11.80
2019-03-03T23:01:29.838Z,11.90
2019-03-03T23:04:33.488Z,11.90
2019-03-03T23:07:23.741Z,12.00
2019-03-03T23:10:37.299Z,12.00
2019-03-03T23:13:37.524Z,12.10
2019-03-03T23:16:31.947Z,12.10
2019-03-03T23:19:32.876Z,12.10
2019-03-03T23:22:42.938Z,12.10
2019-03-03T23:25:50.426Z,12.10
2019-03-03T23:28:21.113Z,12.00
2019-03-03T23:30:51.765Z,12.00
2019-03-03T23:33:21.394Z,12.10
2019-03-03T23:35:51.094Z,12.10
2019-03-03T23:38:20.721Z,12.10
2019-03-03T23:40:50.443Z,12.10
2019-03-03T23:43:20.181Z,12.10
2019-03-03T23:45:49.853Z,12.10
2019-03-03T23:48:19.461Z,12.10
2019-03-03T23:50:49.066Z,12.10
2019-03-03T23:53:18.665Z,12.10
2019-03-03T23:55:48.291Z,12.10
2019-03-03T23:58:18.190Z,12.10
